sensor_id;sensor_type;location;lat;lon;timestamp;pressure;altitude;pressure_sealevel;temperature;humidity
60479;BME280;46321;48.398;11.754;2022-12-18T00:01:25;97725.84;;;-6.92;91.68
60479;BME280;46321;48.398;11.754;2022-12-18T00:03:51;97730.09;;;-6.89;91.14
60479;BME280;46321;48.398;11.754;2022-12-18T00:06:18;97735.44;;;-6.97;91.65
60479;BME280;46321;48.398;11.754;2022-12-18T00:08:44;97734.69;;;-7.02;91.69
60479;BME280;46321;48.398;11.754;2022-12-18T00:11:15;97737.16;;;-6.97;91.90
60479;BME280;46321;48.398;11.754;2022-12-18T00:13:41;97749.00;;;-6.90;91.74
60479;BME280;46321;48.398;11.754;2022-12-18T00:16:10;97760.22;;;-6.94;91.91
60479;BME280;46321;48.398;11.754;2022-12-18T00:18:36;97751.69;;;-6.95;91.97
60479;BME280;46321;48.398;11.754;2022-12-18T00:21:04;97761.94;;;-6.93;92.05
60479;BME280;46321;48.398;11.754;2022-12-18T00:23:30;97751.66;;;-6.93;91.64
60479;BME280;46321;48.398;11.754;2022-12-18T00:26:03;97756.19;;;-7.05;92.67
60479;BME280;46321;48.398;11.754;2022-12-18T00:28:29;97762.03;;;-6.98;92.65
60479;BME280;46321;48.398;11.754;2022-12-18T00:31:06;97761.13;;;-6.95;92.47
60479;BME280;46321;48.398;11.754;2022-12-18T00:33:32;97759.44;;;-6.96;92.36
60479;BME280;46321;48.398;11.754;2022-12-18T00:36:02;97759.25;;;-6.88;92.09
60479;BME280;46321;48.398;11.754;2022-12-18T00:38:28;97763.59;;;-6.91;91.81
60479;BME280;46321;48.398;11.754;2022-12-18T00:40:53;97762.00;;;-6.95;92.62
60479;BME280;46321;48.398;11.754;2022-12-18T00:43:19;97761.88;;;-6.90;92.69
60479;BME280;46321;48.398;11.754;2022-12-18T00:45:45;97754.06;;;-6.87;92.42
60479;BME280;46321;48.398;11.754;2022-12-18T00:48:10;97754.03;;;-6.85;91.94
60479;BME280;46321;48.398;11.754;2022-12-18T00:50:35;97768.66;;;-6.87;92.02
60479;BME280;46321;48.398;11.754;2022-12-18T00:53:00;97760.06;;;-6.86;92.45
60479;BME280;46321;48.398;11.754;2022-12-18T00:55:26;97763.66;;;-6.92;92.73
60479;BME280;46321;48.398;11.754;2022-12-18T00:57:52;97757.81;;;-7.01;93.10
60479;BME280;46321;48.398;11.754;2022-12-18T01:00:17;97759.19;;;-6.85;92.77
60479;BME280;46321;48.398;11.754;2022-12-18T01:02:43;97760.75;;;-6.78;92.44
60479;BME280;46321;48.398;11.754;2022-12-18T01:05:10;97768.31;;;-6.72;92.31
60479;BME280;46321;48.398;11.754;2022-12-18T01:07:36;97779.47;;;-6.71;92.09
60479;BME280;46321;48.398;11.754;2022-12-18T01:10:01;97780.34;;;-6.71;91.83
60479;BME280;46321;48.398;11.754;2022-12-18T01:12:26;97784.56;;;-6.68;91.80
60479;BME280;46321;48.398;11.754;2022-12-18T01:14:51;97775.25;;;-6.74;92.23
60479;BME280;46321;48.398;11.754;2022-12-18T01:17:17;97780.34;;;-6.71;92.09
60479;BME280;46321;48.398;11.754;2022-12-18T01:19:42;97783.66;;;-6.65;92.07
60479;BME280;46321;48.398;11.754;2022-12-18T01:22:07;97780.97;;;-6.61;91.87
60479;BME280;46321;48.398;11.754;2022-12-18T01:24:32;97790.22;;;-6.52;91.74
60479;BME280;46321;48.398;11.754;2022-12-18T01:26:58;97794.41;;;-6.48;91.78
60479;BME280;46321;48.398;11.754;2022-12-18T01:29:23;97790.94;;;-6.47;91.69
60479;BME280;46321;48.398;11.754;2022-12-18T01:31:48;97793.50;;;-6.47;91.65
60479;BME280;46321;48.398;11.754;2022-12-18T01:34:14;97802.25;;;-6.54;91.75
60479;BME280;46321;48.398;11.754;2022-12-18T01:36:39;97811.81;;;-6.58;92.13
60479;BME280;46321;48.398;11.754;2022-12-18T01:39:07;97813.63;;;-6.61;92.26
60479;BME280;46321;48.398;11.754;2022-12-18T01:41:35;97819.50;;;-6.56;92.41
60479;BME280;46321;48.398;11.754;2022-12-18T01:50:11;97821.97;;;-6.51;91.99
60479;BME280;46321;48.398;11.754;2022-12-18T01:52:38;97833.84;;;-6.44;92.07
60479;BME280;46321;48.398;11.754;2022-12-18T01:55:06;97836.41;;;-6.44;91.70
60479;BME280;46321;48.398;11.754;2022-12-18T01:57:33;97834.69;;;-6.44;91.97
60479;BME280;46321;48.398;11.754;2022-12-18T02:00:06;97831.09;;;-6.38;91.63
60479;BME280;46321;48.398;11.754;2022-12-18T02:02:33;97832.00;;;-6.39;91.40
60479;BME280;46321;48.398;11.754;2022-12-18T02:04:58;97828.38;;;-6.32;91.26
60479;BME280;46321;48.398;11.754;2022-12-18T02:07:51;97831.84;;;-6.33;91.58
60479;BME280;46321;48.398;11.754;2022-12-18T02:18:45;97798.03;;;-6.20;90.75
60479;BME280;46321;48.398;11.754;2022-12-18T02:26:30;97800.47;;;-6.14;90.73
60479;BME280;46321;48.398;11.754;2022-12-18T02:29:04;97787.13;;;-6.32;91.21
60479;BME280;46321;48.398;11.754;2022-12-18T02:31:39;97797.13;;;-6.17;90.93
60479;BME280;46321;48.398;11.754;2022-12-18T02:34:07;97803.06;;;-6.15;90.81
60479;BME280;46321;48.398;11.754;2022-12-18T02:36:34;97805.88;;;-6.25;91.13
60479;BME280;46321;48.398;11.754;2022-12-18T02:39:02;97804.09;;;-6.21;91.14
60479;BME280;46321;48.398;11.754;2022-12-18T02:41:28;97806.81;;;-6.27;91.28
60479;BME280;46321;48.398;11.754;2022-12-18T02:43:57;97805.88;;;-6.25;91.23
60479;BME280;46321;48.398;11.754;2022-12-18T02:46:32;97806.66;;;-6.21;91.08
60479;BME280;46321;48.398;11.754;2022-12-18T02:49:06;97794.69;;;-6.24;90.88
60479;BME280;46321;48.398;11.754;2022-12-18T02:51:39;97796.25;;;-6.16;91.01
60479;BME280;46321;48.398;11.754;2022-12-18T02:54:21;97798.16;;;-6.25;91.30
60479;BME280;46321;48.398;11.754;2022-12-18T02:56:52;97805.75;;;-6.18;91.22
60479;BME280;46321;48.398;11.754;2022-12-18T02:59:25;97801.78;;;-6.34;91.12
60479;BME280;46321;48.398;11.754;2022-12-18T03:02:24;97803.25;;;-6.22;91.81
60479;BME280;46321;48.398;11.754;2022-12-18T03:04:53;97807.25;;;-6.10;91.17
60479;BME280;46321;48.398;11.754;2022-12-18T03:07:27;97793.47;;;-6.09;91.05
60479;BME280;46321;48.398;11.754;2022-12-18T03:09:58;97783.84;;;-6.03;90.45
60479;BME280;46321;48.398;11.754;2022-12-18T03:12:31;97789.06;;;-6.05;91.14
60479;BME280;46321;48.398;11.754;2022-12-18T03:15:03;97792.34;;;-6.00;91.09
60479;BME280;46321;48.398;11.754;2022-12-18T03:17:32;97785.50;;;-6.01;90.92
60479;BME280;46321;48.398;11.754;2022-12-18T03:20:10;97794.06;;;-5.99;90.65
60479;BME280;46321;48.398;11.754;2022-12-18T03:22:38;97782.88;;;-5.99;90.90
60479;BME280;46321;48.398;11.754;2022-12-18T03:25:06;97799.13;;;-5.95;91.04
60479;BME280;46321;48.398;11.754;2022-12-18T03:27:33;97801.06;;;-6.04;90.95
60479;BME280;46321;48.398;11.754;2022-12-18T03:30:07;97799.38;;;-6.05;91.12
60479;BME280;46321;48.398;11.754;2022-12-18T03:32:39;97799.22;;;-5.99;90.86
60479;BME280;46321;48.398;11.754;2022-12-18T03:35:08;97798.41;;;-6.01;91.24
60479;BME280;46321;48.398;11.754;2022-12-18T03:37:35;97802.78;;;-6.04;91.29
60479;BME280;46321;48.398;11.754;2022-12-18T03:40:01;97797.50;;;-6.00;91.13
60479;BME280;46321;48.398;11.754;2022-12-18T03:42:31;97798.66;;;-6.10;90.83
60479;BME280;46321;48.398;11.754;2022-12-18T03:45:08;97810.66;;;-6.09;90.69
60479;BME280;46321;48.398;11.754;2022-12-18T03:50:19;97806.94;;;-6.32;91.03
60479;BME280;46321;48.398;11.754;2022-12-18T03:52:55;97812.84;;;-6.28;91.32
60479;BME280;46321;48.398;11.754;2022-12-18T03:55:22;97806.94;;;-6.32;91.27
60479;BME280;46321;48.398;11.754;2022-12-18T03:57:51;97793.84;;;-6.24;91.06
60479;BME280;46321;48.398;11.754;2022-12-18T04:00:18;97789.75;;;-6.33;91.28
60479;BME280;46321;48.398;11.754;2022-12-18T04:02:53;97801.53;;;-6.23;91.08
60479;BME280;46321;48.398;11.754;2022-12-18T04:05:20;97794.69;;;-6.24;91.01
60479;BME280;46321;48.398;11.754;2022-12-18T04:07:48;97798.78;;;-6.15;90.78
60479;BME280;46321;48.398;11.754;2022-12-18T04:10:15;97808.13;;;-6.11;90.66
60479;BME280;46321;48.398;11.754;2022-12-18T04:12:41;97802.13;;;-6.11;90.96
60479;BME280;46321;48.398;11.754;2022-12-18T04:15:07;97807.38;;;-6.16;91.18
60479;BME280;46321;48.398;11.754;2022-12-18T04:17:33;97808.38;;;-6.22;91.37
60479;BME280;46321;48.398;11.754;2022-12-18T04:19:58;97810.06;;;-6.19;91.32
60479;BME280;46321;48.398;11.754;2022-12-18T04:22:23;97812.47;;;-6.13;91.14
60479;BME280;46321;48.398;11.754;2022-12-18T04:24:48;97811.63;;;-6.13;91.21
60479;BME280;46321;48.398;11.754;2022-12-18T04:27:14;97810.81;;;-6.15;91.47
60479;BME280;46321;48.398;11.754;2022-12-18T04:29:39;97798.72;;;-6.13;91.20
60479;BME280;46321;48.398;11.754;2022-12-18T04:32:05;97799.38;;;-6.05;90.64
60479;BME280;46321;48.398;11.754;2022-12-18T04:34:30;97802.06;;;-6.08;91.17
60479;BME280;46321;48.398;11.754;2022-12-18T04:36:55;97798.88;;;-6.19;91.66
60479;BME280;46321;48.398;11.754;2022-12-18T04:39:21;97809.91;;;-6.13;91.39
60479;BME280;46321;48.398;11.754;2022-12-18T04:41:46;97837.38;;;-6.12;91.26
60479;BME280;46321;48.398;11.754;2022-12-18T04:44:11;97833.75;;;-6.06;91.18
60479;BME280;46321;48.398;11.754;2022-12-18T04:46:37;97835.31;;;-5.99;90.50
60479;BME280;46321;48.398;11.754;2022-12-18T04:49:02;97835.31;;;-5.99;90.42
60479;BME280;46321;48.398;11.754;2022-12-18T04:51:27;97838.31;;;-6.16;90.54
60479;BME280;46321;48.398;11.754;2022-12-18T04:53:53;97841.97;;;-6.23;90.57
60479;BME280;46321;48.398;11.754;2022-12-18T04:56:19;97848.88;;;-6.25;90.64
60479;BME280;46321;48.398;11.754;2022-12-18T04:58:44;97853.66;;;-6.10;90.13
60479;BME280;46321;48.398;11.754;2022-12-18T05:01:11;97851.25;;;-6.17;90.34
60479;BME280;46321;48.398;11.754;2022-12-18T05:03:37;97847.66;;;-6.10;89.93
60479;BME280;46321;48.398;11.754;2022-12-18T05:06:04;97848.63;;;-6.16;89.72
60479;BME280;46321;48.398;11.754;2022-12-18T05:08:29;97849.69;;;-6.23;89.64
60479;BME280;46321;48.398;11.754;2022-12-18T05:11:14;97849.69;;;-6.23;89.67
60479;BME280;46321;48.398;11.754;2022-12-18T05:13:44;97838.47;;;-6.22;89.75
60479;BME280;46321;48.398;11.754;2022-12-18T05:16:10;97843.38;;;-6.11;89.13
60479;BME280;46321;48.398;11.754;2022-12-18T05:18:35;97854.47;;;-6.07;89.04
60479;BME280;46321;48.398;11.754;2022-12-18T05:21:01;97857.78;;;-6.04;88.82
60479;BME280;46321;48.398;11.754;2022-12-18T05:23:27;97855.31;;;-6.07;89.04
60479;BME280;46321;48.398;11.754;2022-12-18T05:28:18;97840.94;;;-6.17;89.42
60479;BME280;46321;48.398;11.754;2022-12-18T05:30:48;97846.75;;;-6.09;89.23
60479;BME280;46321;48.398;11.754;2022-12-18T05:33:13;97843.34;;;-6.10;89.52
60479;BME280;46321;48.398;11.754;2022-12-18T05:35:39;97848.50;;;-6.10;89.91
60479;BME280;46321;48.398;11.754;2022-12-18T05:38:04;97856.34;;;-6.14;90.02
60479;BME280;46321;48.398;11.754;2022-12-18T05:40:30;97852.97;;;-6.18;90.76
60479;BME280;46321;48.398;11.754;2022-12-18T05:42:55;97861.06;;;-6.34;90.84
60479;BME280;46321;48.398;11.754;2022-12-18T05:45:20;97855.66;;;-6.23;89.53
60479;BME280;46321;48.398;11.754;2022-12-18T05:47:46;97859.09;;;-6.22;89.60
60479;BME280;46321;48.398;11.754;2022-12-18T05:50:11;97868.50;;;-6.19;89.41
60479;BME280;46321;48.398;11.754;2022-12-18T05:52:36;97865.97;;;-6.21;89.45
60479;BME280;46321;48.398;11.754;2022-12-18T05:55:01;97873.66;;;-6.19;89.25
60479;BME280;46321;48.398;11.754;2022-12-18T05:57:27;97874.34;;;-6.13;89.46
60479;BME280;46321;48.398;11.754;2022-12-18T05:59:52;97879.66;;;-6.19;89.87
60479;BME280;46321;48.398;11.754;2022-12-18T06:02:17;97878.75;;;-6.16;90.05
60479;BME280;46321;48.398;11.754;2022-12-18T06:04:42;97881.25;;;-6.13;89.80
60479;BME280;46321;48.398;11.754;2022-12-18T06:07:08;97882.13;;;-6.14;89.56
60479;BME280;46321;48.398;11.754;2022-12-18T06:09:33;97887.34;;;-6.17;89.56
60479;BME280;46321;48.398;11.754;2022-12-18T06:11:58;97885.78;;;-6.25;89.79
60479;BME280;46321;48.398;11.754;2022-12-18T06:14:24;97878.34;;;-6.37;90.47
60479;BME280;46321;48.398;11.754;2022-12-18T06:16:50;97880.06;;;-6.36;90.40
60479;BME280;46321;48.398;11.754;2022-12-18T06:19:16;97883.41;;;-6.33;90.21
60479;BME280;46321;48.398;11.754;2022-12-18T06:21:41;97874.66;;;-6.25;89.79
60479;BME280;46321;48.398;11.754;2022-12-18T06:24:07;97881.69;;;-6.32;89.82
60479;BME280;46321;48.398;11.754;2022-12-18T06:26:32;97886.13;;;-6.39;90.15
60479;BME280;46321;48.398;11.754;2022-12-18T06:28:58;97886.94;;;-6.38;90.47
60479;BME280;46321;48.398;11.754;2022-12-18T06:31:24;97894.56;;;-6.32;90.04
60479;BME280;46321;48.398;11.754;2022-12-18T06:33:49;97891.84;;;-6.26;89.66
60479;BME280;46321;48.398;11.754;2022-12-18T06:36:15;97890.34;;;-6.35;89.84
60479;BME280;46321;48.398;11.754;2022-12-18T06:38:42;97895.59;;;-6.39;90.32
60479;BME280;46321;48.398;11.754;2022-12-18T06:41:14;97904.16;;;-6.39;90.46
60479;BME280;46321;48.398;11.754;2022-12-18T06:43:40;97898.97;;;-6.37;90.30
60479;BME280;46321;48.398;11.754;2022-12-18T06:46:06;97914.28;;;-6.29;90.25
60479;BME280;46321;48.398;11.754;2022-12-18T06:48:32;97911.75;;;-6.33;90.16
60479;BME280;46321;48.398;11.754;2022-12-18T06:50:58;97918.72;;;-6.36;90.18
60479;BME280;46321;48.398;11.754;2022-12-18T06:53:23;97922.78;;;-6.26;89.82
60479;BME280;46321;48.398;11.754;2022-12-18T06:55:49;97922.69;;;-6.23;89.98
60479;BME280;46321;48.398;11.754;2022-12-18T06:58:14;97914.03;;;-6.20;89.80
60479;BME280;46321;48.398;11.754;2022-12-18T07:00:40;97918.41;;;-6.22;89.48
60479;BME280;46321;48.398;11.754;2022-12-18T07:03:05;97920.25;;;-6.27;89.92
60479;BME280;46321;48.398;11.754;2022-12-18T07:05:30;97928.94;;;-6.33;89.81
60479;BME280;46321;48.398;11.754;2022-12-18T07:07:56;97934.69;;;-6.20;89.72
60479;BME280;46321;48.398;11.754;2022-12-18T07:10:21;97933.91;;;-6.24;89.32
60479;BME280;46321;48.398;11.754;2022-12-18T07:12:47;97939.34;;;-6.38;88.95
60479;BME280;46321;48.398;11.754;2022-12-18T07:15:12;97939.22;;;-6.32;88.89
60479;BME280;46321;48.398;11.754;2022-12-18T07:17:37;97946.75;;;-6.21;88.62
60479;BME280;46321;48.398;11.754;2022-12-18T07:20:03;97951.19;;;-6.27;88.58
60479;BME280;46321;48.398;11.754;2022-12-18T07:22:28;97960.88;;;-6.40;88.93
60479;BME280;46321;48.398;11.754;2022-12-18T07:24:53;97955.84;;;-6.45;89.13
60479;BME280;46321;48.398;11.754;2022-12-18T07:27:19;97956.81;;;-6.51;89.25
60479;BME280;46321;48.398;11.754;2022-12-18T07:29:44;97949.75;;;-6.43;89.26
60479;BME280;46321;48.398;11.754;2022-12-18T07:32:09;97947.31;;;-6.49;89.31
60479;BME280;46321;48.398;11.754;2022-12-18T07:34:34;97947.38;;;-6.50;88.87
60479;BME280;46321;48.398;11.754;2022-12-18T07:37:00;97942.31;;;-6.55;88.77
60479;BME280;46321;48.398;11.754;2022-12-18T07:39:25;97955.19;;;-6.55;88.78
60479;BME280;46321;48.398;11.754;2022-12-18T07:41:50;97956.72;;;-6.46;88.68
60479;BME280;46321;48.398;11.754;2022-12-18T07:44:36;97954.25;;;-6.51;89.09
60479;BME280;46321;48.398;11.754;2022-12-18T07:47:02;97951.78;;;-6.57;89.05
60479;BME280;46321;48.398;11.754;2022-12-18T07:49:27;97953.56;;;-6.59;89.24
60479;BME280;46321;48.398;11.754;2022-12-18T07:51:55;97961.28;;;-6.59;89.30
60479;BME280;46321;48.398;11.754;2022-12-18T07:54:21;97957.81;;;-6.58;88.98
60479;BME280;46321;48.398;11.754;2022-12-18T07:56:46;97954.41;;;-6.59;89.11
60479;BME280;46321;48.398;11.754;2022-12-18T07:59:12;97952.09;;;-6.73;89.23
60479;BME280;46321;48.398;11.754;2022-12-18T08:01:37;97960.47;;;-6.61;89.20
60479;BME280;46321;48.398;11.754;2022-12-18T08:04:02;97958.03;;;-6.69;89.52
60479;BME280;46321;48.398;11.754;2022-12-18T08:06:28;97951.94;;;-6.65;89.56
60479;BME280;46321;48.398;11.754;2022-12-18T08:08:54;97942.41;;;-6.60;89.37
60479;BME280;46321;48.398;11.754;2022-12-18T08:11:20;97937.09;;;-6.52;88.89
60479;BME280;46321;48.398;11.754;2022-12-18T08:13:45;97942.25;;;-6.53;89.21
60479;BME280;46321;48.398;11.754;2022-12-18T08:16:10;97956.69;;;-6.45;89.03
60479;BME280;46321;48.398;11.754;2022-12-18T08:18:37;97957.59;;;-6.47;89.34
60479;BME280;46321;48.398;11.754;2022-12-18T08:21:16;97959.22;;;-6.41;89.07
60479;BME280;46321;48.398;11.754;2022-12-18T08:23:43;97970.28;;;-6.36;88.91
60479;BME280;46321;48.398;11.754;2022-12-18T08:26:12;97973.91;;;-6.45;88.99
60479;BME280;46321;48.398;11.754;2022-12-18T08:28:38;97975.53;;;-6.43;88.76
60479;BME280;46321;48.398;11.754;2022-12-18T08:31:04;97978.91;;;-6.39;88.86
60479;BME280;46321;48.398;11.754;2022-12-18T08:33:30;97973.66;;;-6.34;88.54
60479;BME280;46321;48.398;11.754;2022-12-18T08:35:55;97978.03;;;-6.38;88.72
60479;BME280;46321;48.398;11.754;2022-12-18T08:38:20;97975.56;;;-6.44;88.97
60479;BME280;46321;48.398;11.754;2022-12-18T08:40:46;97973.91;;;-6.47;88.58
60479;BME280;46321;48.398;11.754;2022-12-18T08:43:11;97976.44;;;-6.44;88.92
60479;BME280;46321;48.398;11.754;2022-12-18T08:45:55;97987.47;;;-6.38;88.54
60479;BME280;46321;48.398;11.754;2022-12-18T08:48:21;97993.34;;;-6.32;88.41
60479;BME280;46321;48.398;11.754;2022-12-18T08:50:55;97995.88;;;-6.28;88.92
60479;BME280;46321;48.398;11.754;2022-12-18T08:53:20;97991.72;;;-6.36;89.09
60479;BME280;46321;48.398;11.754;2022-12-18T08:55:45;97987.31;;;-6.30;89.02
60479;BME280;46321;48.398;11.754;2022-12-18T08:58:10;97990.72;;;-6.28;88.50
60479;BME280;46321;48.398;11.754;2022-12-18T09:00:36;97994.19;;;-6.29;88.67
60479;BME280;46321;48.398;11.754;2022-12-18T09:03:01;98002.63;;;-6.23;88.89
60479;BME280;46321;48.398;11.754;2022-12-18T09:05:27;97998.91;;;-6.09;88.50
60479;BME280;46321;48.398;11.754;2022-12-18T09:07:52;97994.50;;;-6.05;87.90
60479;BME280;46321;48.398;11.754;2022-12-18T09:10:17;98007.75;;;-6.21;87.88
60479;BME280;46321;48.398;11.754;2022-12-18T09:12:42;98001.75;;;-6.22;88.68
60479;BME280;46321;48.398;11.754;2022-12-18T09:15:08;98000.69;;;-6.13;88.46
60479;BME280;46321;48.398;11.754;2022-12-18T09:17:33;98001.56;;;-6.12;87.69
60479;BME280;46321;48.398;11.754;2022-12-18T09:19:59;98006.66;;;-6.11;87.36
60479;BME280;46321;48.398;11.754;2022-12-18T09:22:24;97999.94;;;-6.16;87.67
60479;BME280;46321;48.398;11.754;2022-12-18T09:24:49;97994.69;;;-6.13;87.42
60479;BME280;46321;48.398;11.754;2022-12-18T09:27:14;97987.88;;;-6.16;87.56
60479;BME280;46321;48.398;11.754;2022-12-18T09:29:40;97992.66;;;-6.40;88.45
60479;BME280;46321;48.398;11.754;2022-12-18T09:32:05;97988.13;;;-6.28;87.96
60479;BME280;46321;48.398;11.754;2022-12-18T09:34:30;97995.84;;;-6.27;87.56
60479;BME280;46321;48.398;11.754;2022-12-18T09:36:55;97999.44;;;-6.36;88.01
60479;BME280;46321;48.398;11.754;2022-12-18T09:39:21;97991.47;;;-6.23;87.84
60479;BME280;46321;48.398;11.754;2022-12-18T09:41:54;97994.09;;;-6.26;88.00
60479;BME280;46321;48.398;11.754;2022-12-18T09:44:29;97981.97;;;-6.21;87.46
60479;BME280;46321;48.398;11.754;2022-12-18T09:47:15;97992.53;;;-6.32;88.29
60479;BME280;46321;48.398;11.754;2022-12-18T09:49:45;97976.25;;;-6.36;88.37
60479;BME280;46321;48.398;11.754;2022-12-18T09:52:15;97979.34;;;-6.19;87.81
60479;BME280;46321;48.398;11.754;2022-12-18T09:54:46;97983.66;;;-6.20;87.72
60479;BME280;46321;48.398;11.754;2022-12-18T09:57:20;97976.78;;;-6.19;87.80
60479;BME280;46321;48.398;11.754;2022-12-18T09:59:51;97970.56;;;-6.11;87.56
60479;BME280;46321;48.398;11.754;2022-12-18T10:02:20;97969.56;;;-6.05;87.53
60479;BME280;46321;48.398;11.754;2022-12-18T10:05:00;97964.38;;;-6.03;87.17
60479;BME280;46321;48.398;11.754;2022-12-18T10:15:40;97950.41;;;-5.94;86.23
60479;BME280;46321;48.398;11.754;2022-12-18T10:20:52;97936.50;;;-5.87;86.67
60479;BME280;46321;48.398;11.754;2022-12-18T10:23:33;97941.41;;;-5.78;86.70
60479;BME280;46321;48.398;11.754;2022-12-18T10:26:07;97939.78;;;-5.82;86.29
60479;BME280;46321;48.398;11.754;2022-12-18T10:28:35;97936.03;;;-5.68;86.65
60479;BME280;46321;48.398;11.754;2022-12-18T10:31:01;97938.03;;;-5.80;86.30
60479;BME280;46321;48.398;11.754;2022-12-18T10:33:29;97937.97;;;-5.77;86.06
60479;BME280;46321;48.398;11.754;2022-12-18T10:35:56;97934.25;;;-5.66;86.46
60479;BME280;46321;48.398;11.754;2022-12-18T10:38:23;97939.63;;;-5.76;87.02
60479;BME280;46321;48.398;11.754;2022-12-18T10:41:03;97936.03;;;-5.68;86.13
60479;BME280;46321;48.398;11.754;2022-12-18T10:43:35;97937.44;;;-5.55;86.29
60479;BME280;46321;48.398;11.754;2022-12-18T10:51:07;97933.19;;;-5.57;85.70
60479;BME280;46321;48.398;11.754;2022-12-18T10:53:35;97940.81;;;-5.53;85.39
60479;BME280;46321;48.398;11.754;2022-12-18T10:56:03;97929.38;;;-5.42;85.05
60479;BME280;46321;48.398;11.754;2022-12-18T10:58:32;97946.81;;;-5.52;85.06
60479;BME280;46321;48.398;11.754;2022-12-18T11:03:44;97951.78;;;-5.43;84.35
60479;BME280;46321;48.398;11.754;2022-12-18T11:06:13;97945.13;;;-5.53;83.90
60479;BME280;46321;48.398;11.754;2022-12-18T11:08:39;97937.25;;;-5.47;84.68
60479;BME280;46321;48.398;11.754;2022-12-18T11:11:35;97940.13;;;-5.59;84.00
60479;BME280;46321;48.398;11.754;2022-12-18T11:16:33;97943.50;;;-5.56;84.62
60479;BME280;46321;48.398;11.754;2022-12-18T11:19:19;97931.81;;;-5.36;84.41
60479;BME280;46321;48.398;11.754;2022-12-18T11:21:55;97951.50;;;-5.68;85.40
60479;BME280;46321;48.398;11.754;2022-12-18T11:24:31;97942.59;;;-5.55;84.39
60479;BME280;46321;48.398;11.754;2022-12-18T11:26:58;97941.34;;;-5.40;84.33
60479;BME280;46321;48.398;11.754;2022-12-18T11:29:36;97941.66;;;-5.52;84.12
60479;BME280;46321;48.398;11.754;2022-12-18T11:34:41;97941.44;;;-5.43;83.96
60479;BME280;46321;48.398;11.754;2022-12-18T11:37:09;97937.84;;;-5.37;84.13
60479;BME280;46321;48.398;11.754;2022-12-18T11:39:40;97939.34;;;-5.28;83.70
60479;BME280;46321;48.398;11.754;2022-12-18T11:44:55;97936.41;;;-5.47;83.78
60479;BME280;46321;48.398;11.754;2022-12-18T11:47:29;97929.09;;;-5.31;83.69
60479;BME280;46321;48.398;11.754;2022-12-18T11:50:01;97915.25;;;-5.29;82.98
60479;BME280;46321;48.398;11.754;2022-12-18T11:52:33;97920.38;;;-5.27;83.03
60479;BME280;46321;48.398;11.754;2022-12-18T11:55:01;97929.13;;;-5.33;83.08
60479;BME280;46321;48.398;11.754;2022-12-18T11:58:00;97929.50;;;-5.47;84.29
60479;BME280;46321;48.398;11.754;2022-12-18T12:00:29;97924.38;;;-5.48;84.32
60479;BME280;46321;48.398;11.754;2022-12-18T12:03:22;97918.91;;;-5.36;84.18
60479;BME280;46321;48.398;11.754;2022-12-18T12:11:18;97909.38;;;-5.34;83.95
60479;BME280;46321;48.398;11.754;2022-12-18T12:14:12;97911.06;;;-5.33;83.75
60479;BME280;46321;48.398;11.754;2022-12-18T12:17:04;97900.91;;;-5.39;83.78
60479;BME280;46321;48.398;11.754;2022-12-18T12:22:56;97892.41;;;-5.44;84.25
60479;BME280;46321;48.398;11.754;2022-12-18T12:28:11;97895.84;;;-5.42;84.21
60479;BME280;46321;48.398;11.754;2022-12-18T12:34:04;97879.72;;;-5.19;83.69
60479;BME280;46321;48.398;11.754;2022-12-18T12:36:54;97890.97;;;-5.21;83.84
60479;BME280;46321;48.398;11.754;2022-12-18T12:39:28;97883.16;;;-5.52;85.57
60479;BME280;46321;48.398;11.754;2022-12-18T12:41:55;97879.25;;;-5.33;84.80
60479;BME280;46321;48.398;11.754;2022-12-18T12:44:46;97885.63;;;-5.15;84.63
60479;BME280;46321;48.398;11.754;2022-12-18T12:47:17;97880.81;;;-5.28;84.61
60479;BME280;46321;48.398;11.754;2022-12-18T12:49:45;97885.81;;;-5.21;84.35
60479;BME280;46321;48.398;11.754;2022-12-18T12:52:15;97893.84;;;-5.32;83.80
60479;BME280;46321;48.398;11.754;2022-12-18T12:54:43;97891.22;;;-5.31;83.56
60479;BME280;46321;48.398;11.754;2022-12-18T12:57:10;97890.66;;;-5.42;84.22
60479;BME280;46321;48.398;11.754;2022-12-18T12:59:45;97881.16;;;-5.40;84.50
60479;BME280;46321;48.398;11.754;2022-12-18T13:05:19;97892.00;;;-5.29;83.78
60479;BME280;46321;48.398;11.754;2022-12-18T13:07:57;97892.50;;;-5.14;83.67
60479;BME280;46321;48.398;11.754;2022-12-18T13:10:30;97904.03;;;-5.28;83.99
60479;BME280;46321;48.398;11.754;2022-12-18T13:13:02;97898.53;;;-5.15;84.24
60479;BME280;46321;48.398;11.754;2022-12-18T13:15:37;97907.91;;;-5.11;83.75
60479;BME280;46321;48.398;11.754;2022-12-18T13:23:18;97909.88;;;-5.21;82.84
60479;BME280;46321;48.398;11.754;2022-12-18T13:25:44;97920.97;;;-5.17;82.87
60479;BME280;46321;48.398;11.754;2022-12-18T13:28:10;97916.50;;;-5.10;82.59
60479;BME280;46321;48.398;11.754;2022-12-18T13:30:48;97911.44;;;-5.15;82.74
60479;BME280;46321;48.398;11.754;2022-12-18T13:38:34;97908.16;;;-5.54;84.11
60479;BME280;46321;48.398;11.754;2022-12-18T13:41:01;97887.34;;;-5.47;83.77
60479;BME280;46321;48.398;11.754;2022-12-18T13:43:57;97883.06;;;-5.48;83.42
60479;BME280;46321;48.398;11.754;2022-12-18T13:46:30;97881.56;;;-5.57;84.12
60479;BME280;46321;48.398;11.754;2022-12-18T13:51:43;97892.59;;;-5.51;84.59
60479;BME280;46321;48.398;11.754;2022-12-18T13:54:22;97885.28;;;-5.68;85.21
60479;BME280;46321;48.398;11.754;2022-12-18T13:56:49;97892.81;;;-5.60;85.15
60479;BME280;46321;48.398;11.754;2022-12-18T14:01:57;97888.56;;;-5.61;85.17
60479;BME280;46321;48.398;11.754;2022-12-18T14:04:31;97880.06;;;-5.65;85.48
60479;BME280;46321;48.398;11.754;2022-12-18T14:07:10;97882.50;;;-5.60;85.50
60479;BME280;46321;48.398;11.754;2022-12-18T14:09:41;97879.19;;;-5.65;85.12
60479;BME280;46321;48.398;11.754;2022-12-18T14:12:14;97903.41;;;-5.71;84.99
60479;BME280;46321;48.398;11.754;2022-12-18T14:14:59;97892.56;;;-5.84;84.79
60479;BME280;46321;48.398;11.754;2022-12-18T14:17:25;97900.28;;;-5.84;85.19
60479;BME280;46321;48.398;11.754;2022-12-18T14:19:51;97895.44;;;-5.97;85.62
60479;BME280;46321;48.398;11.754;2022-12-18T14:22:21;97900.28;;;-5.84;85.13
60479;BME280;46321;48.398;11.754;2022-12-18T14:25:27;97897.69;;;-5.82;85.14